Peterborough, New Hampshire
Current Conditions -  °F | °C
As of 2:10 AM on Sunday 23 Nov 2014 (Local Time) from KAFN Reporting Station
Scattered Clouds Scattered Clouds  
Wind Chill: 28°   Ceiling: Unl
Heat Index: 36°   Visibility: 10mi
Dew Point: 24°   Wind: 10mph
Humidity: 62%   Direction: 210°SSW
Pressure: 30.04"   Gusts: NA
Location:  42.87°N, 71.95°W
Report Text: KAFN 230710Z AUTO 21009KT 190V250 10SM FEW020 SCT029 SCT055 02/M04 A3004 RMK AO2 T00221044
Loading
Personal Weather Stations






























Interactive Weather Map New forecast layout! Learn more

10-Day Weather Forecast

Advertisements
Track Severe Weather on mobile